Time;durP1;ratioP1;P1;durP2;ratioP2;P2;SDS_P1;SDS_P2;PMS_P1;PMS_P2;Temp;Humidity;BMP_temperature;BMP_pressure;BME280_temperature;BME280_humidity;BME280_pressure;Samples;Min_cycle;Max_cycle;Signal;HPM_P1;HPM_P2
2021/04/15 00:00:35;;;;;;;10.70;9.80;;;;;;;21.90;42.35;100644.25;1701578;82;21485;-62
2021/04/15 00:03:08;;;;;;;10.58;9.75;;;;;;;21.91;42.34;100646.45;1683953;83;21191;-62
2021/04/15 00:05:43;;;;;;;10.65;9.70;;;;;;;21.94;42.25;100645.24;1880496;74;22436;-64
2021/04/15 00:08:10;;;;;;;10.18;9.38;;;;;;;21.88;42.23;100644.59;1810228;77;21151;-63
2021/04/15 00:10:40;;;;;;;10.53;9.68;;;;;;;21.86;42.23;100641.33;1789878;78;21430;-64
2021/04/15 00:13:18;;;;;;;9.78;8.98;;;;;;;21.87;42.23;100644.35;1808589;77;21012;-64
2021/04/15 00:15:45;;;;;;;11.05;10.15;;;;;;;21.86;42.20;100642.72;1783931;80;21507;-63
2021/04/15 00:18:12;;;;;;;11.12;10.18;;;;;;;21.87;42.20;100640.20;1813573;77;21134;-63
2021/04/15 00:20:39;;;;;;;11.15;10.15;;;;;;;21.87;42.15;100637.42;1812079;77;21366;-63
2021/04/15 00:23:06;;;;;;;10.53;9.73;;;;;;;21.87;42.11;100638.00;1811532;77;21303;-62
2021/04/15 00:25:32;;;;;;;9.93;9.08;;;;;;;21.84;42.10;100631.17;1806374;77;21467;-63
2021/04/15 00:27:59;;;;;;;11.03;10.13;;;;;;;21.84;42.12;100639.48;1809372;77;21003;-62
2021/04/15 00:30:26;;;;;;;12.15;11.15;;;;;;;21.85;42.10;100631.39;1811686;77;21693;-62
2021/04/15 00:32:52;;;;;;;12.53;11.43;;;;;;;21.87;42.08;100634.66;1813868;77;21219;-62
2021/04/15 00:35:20;;;;;;;12.53;11.48;;;;;;;21.86;42.05;100631.64;1811116;77;21700;-63
2021/04/15 00:37:48;;;;;;;11.97;11.00;;;;;;;21.86;42.03;100629.44;1807159;78;21218;-63
2021/04/15 00:40:17;;;;;;;11.85;10.70;;;;;;;21.85;42.02;100629.22;1783873;78;21205;-63
2021/04/15 00:42:43;;;;;;;11.68;10.68;;;;;;;21.82;41.99;100627.91;1781198;78;21152;-63
2021/04/15 00:45:16;;;;;;;13.08;11.97;;;;;;;21.84;41.98;100626.20;1815342;77;21554;-63
2021/04/15 00:47:44;;;;;;;14.33;13.13;;;;;;;21.85;41.97;100620.91;1815766;77;22932;-62
2021/04/15 00:50:22;;;;;;;13.22;12.03;;;;;;;21.85;41.96;100623.08;1782005;78;21201;-63
2021/04/15 00:52:51;;;;;;;12.68;11.57;;;;;;;21.84;41.93;100618.70;1789391;78;21213;-63
2021/04/15 00:55:20;;;;;;;13.22;12.05;;;;;;;21.84;41.90;100625.63;1759543;79;21248;-64
2021/04/15 00:57:48;;;;;;;12.55;11.50;;;;;;;21.83;41.89;100620.41;1791597;78;21154;-63
2021/04/15 01:00:19;;;;;;;13.68;12.47;;;;;;;21.83;41.90;100620.41;1796986;78;22784;-64
2021/04/15 01:02:45;;;;;;;13.90;12.70;;;;;;;21.83;41.90;100625.95;1798480;78;21179;-64
2021/04/15 01:05:17;;;;;;;13.75;12.55;;;;;;;21.83;41.86;100633.69;1787204;78;21378;-64
2021/04/15 01:07:44;;;;;;;13.38;12.28;;;;;;;21.82;41.84;100626.52;1805976;78;21187;-63
2021/04/15 01:10:12;;;;;;;13.08;11.93;;;;;;;21.82;41.82;100627.91;1804895;78;21582;-63
2021/04/15 01:13:03;;;;;;;13.35;12.15;;;;;;;21.82;41.83;100631.24;1797114;78;21638;-63
2021/04/15 01:16:13;;;;;;;13.62;12.23;;;;;;;21.81;41.84;100631.02;1789562;78;21212;-64
2021/04/15 01:19:06;;;;;;;15.38;13.88;;;;;;;21.82;41.83;100634.83;1802356;78;21166;-63
2021/04/15 01:21:59;;;;;;;15.43;14.00;;;;;;;21.83;41.81;100642.00;1780405;78;21125;-65
2021/04/15 01:24:37;;;;;;;14.38;12.98;;;;;;;21.82;41.79;100635.39;1792410;78;21576;-64
2021/04/15 01:27:47;;;;;;;14.75;13.38;;;;;;;21.79;41.75;100641.03;1799903;78;22135;-63
2021/04/15 01:30:36;;;;;;;13.95;12.68;;;;;;;21.77;41.76;100643.30;1800819;78;21513;-64
2021/04/15 01:33:23;;;;;;;13.60;12.33;;;;;;;21.76;41.78;100638.94;1790279;78;21549;-65
2021/04/15 01:36:01;;;;;;;14.98;13.55;;;;;;;21.77;41.74;100641.10;1795200;78;21614;-65
2021/04/15 01:38:33;;;;;;;14.70;13.28;;;;;;;21.76;41.73;100643.09;1804096;78;21169;-66
2021/04/15 01:41:20;;;;;;;13.50;12.20;;;;;;;21.75;41.69;100632.33;1797827;78;21163;-64
2021/04/15 01:43:54;;;;;;;13.58;12.20;;;;;;;21.74;41.67;100626.55;1798575;78;21103;-66
2021/04/15 01:46:24;;;;;;;13.40;11.83;;;;;;;21.72;41.65;100629.66;1796973;78;21137;-66
2021/04/15 01:48:52;;;;;;;13.77;12.43;;;;;;;21.72;41.64;100619.97;1807647;78;21129;-64
2021/04/15 01:51:43;;;;;;;15.88;14.23;;;;;;;21.74;41.62;100617.66;1785674;78;21159;-65
2021/04/15 01:54:15;;;;;;;14.03;12.70;;;;;;;21.75;41.60;100610.17;1797164;78;21202;-64
2021/04/15 01:57:06;;;;;;;13.40;12.10;;;;;;;21.73;41.58;100620.19;1800458;78;21190;-64
2021/04/15 01:59:43;;;;;;;13.38;12.18;;;;;;;21.72;41.57;100616.38;1797339;78;21225;-64
2021/04/15 02:02:20;;;;;;;13.15;11.75;;;;;;;21.70;41.57;100618.08;1800978;78;21127;-64
2021/04/15 02:04:53;;;;;;;14.55;13.05;;;;;;;21.73;41.56;100624.91;1789459;78;21220;-62
2021/04/15 02:07:20;;;;;;;14.90;13.40;;;;;;;21.73;41.53;100616.59;1791368;78;21189;-64
2021/04/15 02:09:48;;;;;;;13.48;12.18;;;;;;;21.73;41.53;100621.57;1794569;78;21209;-64
2021/04/15 02:12:26;;;;;;;13.50;12.13;;;;;;;21.73;41.48;100620.75;1785017;78;21103;-64
2021/04/15 02:15:10;;;;;;;12.68;11.43;;;;;;;21.72;41.48;100626.08;1774576;78;21195;-65
2021/04/15 02:17:40;;;;;;;13.32;12.03;;;;;;;21.71;41.45;100621.67;1776104;78;21134;-64
2021/04/15 02:20:11;;;;;;;;;;;;;;;21.72;41.44;100623.30;1792705;78;21197;-65
2021/04/15 02:23:09;;;;;;;14.05;12.55;;;;;;;21.77;41.46;100621.72;1859290;75;22149;-65
2021/04/15 02:25:56;;;;;;;13.22;11.93;;;;;;;21.71;41.47;100619.72;1841654;77;21011;-64
2021/04/15 02:28:41;;;;;;;13.15;11.75;;;;;;;21.69;41.44;100621.98;1833723;77;21192;-64
2021/04/15 02:31:15;;;;;;;14.53;12.63;;;;;;;21.69;41.42;100618.41;1829997;77;21665;-64
2021/04/15 02:34:07;;;;;;;13.03;11.70;;;;;;;21.67;41.42;100613.22;1838499;77;21062;-64
2021/04/15 02:36:51;;;;;;;13.55;12.15;;;;;;;21.70;41.42;100608.96;1836424;77;20967;-63
2021/04/15 02:39:31;;;;;;;14.07;12.60;;;;;;;21.69;41.39;100608.14;1831057;77;21422;-63
2021/04/15 02:41:59;;;;;;;14.95;13.38;;;;;;;21.69;41.37;100613.68;1833082;77;21191;-62
2021/04/15 02:44:31;;;;;;;12.10;10.90;;;;;;;21.68;41.36;100611.27;1826783;77;21398;-64
2021/04/15 02:47:06;;;;;;;12.35;11.05;;;;;;;21.67;41.34;100614.60;1829896;77;21261;-63
2021/04/15 02:49:33;;;;;;;13.50;12.07;;;;;;;21.67;41.36;100613.78;1838046;77;21120;-64
2021/04/15 02:52:09;;;;;;;13.03;11.65;;;;;;;21.68;41.35;100614.84;1829293;77;21130;-64
2021/04/15 02:54:47;;;;;;;14.40;12.90;;;;;;;21.69;41.36;100623.37;1831459;77;22083;-64
2021/04/15 02:57:24;;;;;;;13.40;12.00;;;;;;;21.70;41.32;100627.77;1832251;77;21137;-65
2021/04/15 03:00:11;;;;;;;12.75;11.40;;;;;;;21.69;41.32;100629.48;1836789;76;21177;-63
2021/04/15 03:02:47;;;;;;;10.88;9.75;;;;;;;21.68;41.31;100623.72;1839981;77;21233;-64
2021/04/15 03:05:25;;;;;;;12.70;11.40;;;;;;;21.67;41.31;100615.98;1785640;78;21094;-65
2021/04/15 03:08:13;;;;;;;13.35;12.00;;;;;;;21.68;41.28;100628.69;1790495;78;21454;-64
2021/04/15 03:10:54;;;;;;;13.53;12.15;;;;;;;21.69;41.28;100624.76;1717390;81;21619;-65
2021/04/15 03:15:54;;;;;;;13.28;11.55;;;;;;;21.68;41.25;100625.11;1765013;80;21034;-64
2021/04/15 03:18:41;;;;;;;12.37;11.00;;;;;;;21.67;41.24;100630.39;1757760;80;21214;-61
2021/04/15 03:21:28;;;;;;;8.70;6.92;;;;;;;21.66;41.29;100630.96;1759637;80;21313;-66
2021/04/15 03:23:58;;;;;;;6.92;5.75;;;;;;;21.68;41.38;100633.41;1759156;80;21185;-61
2021/04/15 03:29:25;;;;;;;6.22;5.50;;;;;;;21.69;41.53;100638.60;1756691;80;21079;-60
2021/04/15 03:32:23;;;;;;;7.37;5.28;;;;;;;21.69;41.55;100637.22;1756923;80;21522;-60
2021/04/15 03:35:16;;;;;;;5.20;4.60;;;;;;;21.68;41.62;100632.03;1756256;80;21213;-61
2021/04/15 03:37:55;;;;;;;5.97;5.22;;;;;;;21.68;41.67;100635.61;1751573;80;21920;-62
2021/04/15 03:40:28;;;;;;;6.65;5.22;;;;;;;21.70;41.70;100633.88;1759405;80;21118;-62
2021/04/15 03:43:02;;;;;;;6.67;5.28;;;;;;;21.70;41.76;100636.65;1769768;80;21621;-61
2021/04/15 03:45:48;;;;;;;5.65;5.05;;;;;;;21.71;41.81;100641.05;1756163;80;21656;-61
2021/04/15 03:48:25;;;;;;;6.05;4.90;;;;;;;21.71;41.78;100635.52;1755782;80;22170;-61
2021/04/15 03:51:05;;;;;;;6.90;4.60;;;;;;;21.68;41.78;100641.72;1759273;80;21158;-61
2021/04/15 03:53:52;;;;;;;7.40;5.33;;;;;;;21.69;41.85;100645.52;1768138;80;21166;-61
2021/04/15 03:56:41;;;;;;;7.03;5.37;;;;;;;21.70;41.88;100649.93;1739426;80;21625;-61
2021/04/15 03:59:37;;;;;;;5.95;4.47;;;;;;;21.72;41.90;100653.77;1759801;80;21154;-60
2021/04/15 04:02:22;;;;;;;5.97;4.90;;;;;;;21.71;41.91;100658.48;1762777;80;21193;-61
2021/04/15 04:04:52;;;;;;;5.55;4.62;;;;;;;21.70;41.89;100662.39;1746730;80;21462;-61
2021/04/15 04:07:40;;;;;;;6.70;5.20;;;;;;;21.69;41.92;100662.14;1760986;80;21272;-61
2021/04/15 04:10:17;;;;;;;7.05;4.37;;;;;;;21.70;41.90;100661.57;1742698;80;21585;-61
2021/04/15 04:12:54;;;;;;;5.47;4.50;;;;;;;21.71;41.93;100663.20;1728812;80;21130;-61
2021/04/15 04:15:30;;;;;;;5.37;4.40;;;;;;;21.73;41.94;100666.44;1741804;80;21222;-61
2021/04/15 04:18:05;;;;;;;5.30;4.62;;;;;;;21.73;41.91;100665.88;1714436;80;21169;-61
2021/04/15 04:20:35;;;;;;;4.95;4.45;;;;;;;21.71;41.88;100668.17;1751213;80;21473;-61
2021/04/15 04:23:13;;;;;;;5.17;4.57;;;;;;;21.68;41.87;100668.84;1743337;80;21555;-61
2021/04/15 04:25:52;;;;;;;5.60;4.65;;;;;;;21.69;41.91;100669.06;1729591;80;21229;-62
2021/04/15 04:28:38;;;;;;;4.97;4.45;;;;;;;21.70;41.92;100674.84;1741881;80;21320;-62
2021/04/15 04:31:19;;;;;;;5.40;4.53;;;;;;;21.71;41.90;100672.33;1755127;80;21134;-61
2021/04/15 04:33:51;;;;;;;5.47;4.83;;;;;;;21.71;41.91;100673.72;1767433;80;21413;-61
2021/04/15 04:36:20;;;;;;;6.47;4.90;;;;;;;21.70;41.90;100683.72;1735809;80;21231;-62
2021/04/15 04:38:47;;;;;;;5.47;4.17;;;;;;;21.69;41.91;100677.94;1741558;80;21199;-61
2021/04/15 04:41:25;;;;;;;6.03;4.50;;;;;;;21.68;41.94;100679.91;1742901;80;21542;-61
2021/04/15 04:43:55;;;;;;;4.75;3.70;;;;;;;21.70;41.99;100680.39;1756951;80;21154;-61
2021/04/15 04:46:44;;;;;;;4.50;4.00;;;;;;;21.71;42.03;100682.02;1744105;80;21162;-61
2021/04/15 04:49:31;;;;;;;4.83;3.87;;;;;;;21.72;42.04;100686.42;1714049;82;21517;-61
2021/04/15 04:52:05;;;;;;;7.42;4.10;;;;;;;21.71;42.03;100682.59;1697201;83;21191;-61
2021/04/15 04:54:32;;;;;;;5.25;3.95;;;;;;;21.69;42.07;100694.55;1679108;84;21287;-61
2021/04/15 04:57:12;;;;;;;7.08;3.80;;;;;;;21.68;42.13;100694.33;1684132;84;21203;-61
2021/04/15 04:59:47;;;;;;;5.17;4.05;;;;;;;21.69;42.13;100693.16;1708823;83;21468;-61
2021/04/15 05:02:15;;;;;;;4.58;3.62;;;;;;;21.70;42.16;100698.95;1714258;83;21179;-61
2021/04/15 05:04:43;;;;;;;4.83;3.75;;;;;;;21.69;42.16;100701.47;1701661;83;21265;-61
2021/04/15 05:07:21;;;;;;;5.47;3.70;;;;;;;21.68;42.17;100704.84;1669838;83;21249;-61
2021/04/15 05:10:20;;;;;;;5.05;3.90;;;;;;;21.73;42.18;100710.18;1829018;76;22899;-61
2021/04/15 05:12:49;;;;;;;4.62;3.42;;;;;;;21.68;42.21;100717.30;1787905;78;21696;-61
2021/04/15 05:15:16;;;;;;;4.37;2.62;;;;;;;21.70;42.19;100719.15;1786962;78;21521;-60
2021/04/15 05:17:43;;;;;;;3.72;3.00;;;;;;;21.68;41.84;100717.30;1786738;78;21028;-61
2021/04/15 05:20:13;;;;;;;5.87;3.47;;;;;;;21.65;41.69;100715.72;1793843;78;21450;-60
2021/04/15 05:23:04;;;;;;;;;;;;;;;21.64;41.68;100716.30;1791722;78;21307;-60
2021/04/15 05:26:09;;;;;;;5.05;3.35;;;;;;;21.64;41.73;100715.50;1795672;78;20225;-62
2021/04/15 05:28:36;;;;;;;3.50;2.98;;;;;;;21.64;41.80;100717.67;1781016;78;21306;-65
2021/04/15 05:31:05;;;;;;;3.62;3.17;;;;;;;21.66;41.86;100714.59;1793639;77;21119;-62
2021/04/15 05:33:32;;;;;;;3.60;2.90;;;;;;;21.65;41.91;100713.77;1730397;80;21220;-62
2021/04/15 05:36:22;;;;;;;5.70;2.72;;;;;;;21.66;41.99;100715.41;1753710;80;21143;-61
2021/04/15 05:38:55;;;;;;;4.58;3.27;;;;;;;21.69;42.07;100717.52;1796421;78;21146;-62
2021/04/15 05:41:46;;;;;;;4.47;3.08;;;;;;;21.74;42.16;100717.36;1786466;78;22158;-64
2021/04/15 05:44:39;;;;;;;3.02;2.72;;;;;;;21.79;42.22;100721.34;1793096;78;21712;-61
2021/04/15 05:47:32;;;;;;;4.08;2.30;;;;;;;21.85;42.32;100724.17;1803352;77;21120;-63
2021/04/15 05:50:05;;;;;;;2.80;2.25;;;;;;;21.89;42.41;100717.44;1798100;78;21596;-60
2021/04/15 05:52:39;;;;;;;2.92;2.05;;;;;;;21.93;42.47;100727.31;1800883;78;21163;-61
2021/04/15 05:55:17;;;;;;;2.92;2.05;;;;;;;21.99;42.54;100721.83;1791673;78;21192;-62
2021/04/15 05:57:49;;;;;;;3.02;2.08;;;;;;;22.04;42.62;100724.42;1785416;78;21226;-65
2021/04/15 06:00:22;;;;;;;4.42;2.02;;;;;;;22.07;42.68;100723.76;1791285;78;21194;-62
2021/04/15 06:02:52;;;;;;;3.22;1.80;;;;;;;22.10;42.77;100716.20;1794456;78;21129;-62
2021/04/15 06:05:25;;;;;;;;;;;;;;;22.12;42.84;100720.25;1794610;77;21242;-61
2021/04/15 06:07:54;;;;;;;3.72;1.95;;;;;;;22.16;42.90;100723.17;1787362;78;21221;-62
2021/04/15 06:10:24;;;;;;;4.10;1.90;;;;;;;22.18;42.92;100724.48;1764962;78;21237;-62
2021/04/15 06:13:12;;;;;;;3.27;1.98;;;;;;;22.24;42.96;100729.26;1781251;78;21725;-63
2021/04/15 06:15:44;;;;;;;2.70;2.00;;;;;;;;;;1764934;78;21185;-60
2021/04/15 06:18:34;;;;;;;2.42;1.80;;;;;;;22.31;43.06;100729.02;1792246;78;21233;-61
2021/04/15 06:21:15;;;;;;;2.62;1.80;;;;;;;22.34;43.13;100721.98;1785387;78;21248;-62
2021/04/15 06:23:58;;;;;;;3.95;2.05;;;;;;;22.39;43.17;100722.38;1785061;78;21236;-62
2021/04/15 06:26:31;;;;;;;2.55;1.82;;;;;;;22.43;43.25;100719.19;1755505;78;21306;-62
2021/04/15 06:29:05;;;;;;;2.65;2.08;;;;;;;22.48;43.28;100718.44;1801863;78;21797;-62
2021/04/15 06:31:39;;;;;;;2.67;2.22;;;;;;;22.51;43.29;100720.53;1796488;78;21158;-62
2021/04/15 06:34:09;;;;;;;2.95;1.82;;;;;;;22.53;43.32;100732.69;1798699;78;22626;-60
2021/04/15 06:37:00;;;;;;;4.08;2.47;;;;;;;22.55;43.38;100731.20;1799811;78;21932;-61
2021/04/15 06:39:36;;;;;;;5.42;2.00;;;;;;;22.58;43.43;100732.48;1793115;78;21139;-61
2021/04/15 06:42:41;;;;;;;2.22;1.80;;;;;;;22.63;43.49;100733.12;1795072;78;21160;-61
2021/04/15 06:45:35;;;;;;;3.25;1.80;;;;;;;22.68;43.52;100737.67;1791763;78;21254;-61
2021/04/15 06:48:26;;;;;;;6.45;2.30;;;;;;;22.70;43.52;100736.20;1698920;82;21652;-62
2021/04/15 06:51:16;;;;;;;2.50;1.85;;;;;;;22.72;43.54;100740.05;1737042;80;22056;-62
2021/04/15 06:54:03;;;;;;;2.42;1.62;;;;;;;22.74;43.54;100744.09;1749107;80;21174;-61
2021/04/15 06:56:49;;;;;;;2.00;1.60;;;;;;;22.77;43.58;100746.80;1738371;80;21393;-62
2021/04/15 07:00:06;;;;;;;2.50;1.57;;;;;;;22.80;43.60;100750.28;1714994;81;21628;-63
2021/04/15 07:02:45;;;;;;;2.33;1.77;;;;;;;22.82;43.63;100749.95;1729919;81;21226;-61
2021/04/15 07:05:16;;;;;;;4.67;2.87;;;;;;;22.81;43.67;100750.53;1787850;78;21222;-59
2021/04/15 07:07:50;;;;;;;6.50;3.67;;;;;;;22.83;43.74;100752.98;1797233;78;21141;-62
2021/04/15 07:10:57;;;;;;;4.97;3.20;;;;;;;22.86;43.85;100755.08;1791562;78;21202;-62
2021/04/15 07:13:57;;;;;;;3.52;2.17;;;;;;;22.88;43.92;100749.42;1784906;78;21138;-59
2021/04/15 07:16:37;;;;;;;4.28;2.30;;;;;;;22.94;44.04;100752.26;1792251;78;21191;-59
2021/04/15 07:19:22;;;;;;;2.70;1.95;;;;;;;22.98;44.09;100764.31;1790544;77;21206;-59
2021/04/15 07:22:15;;;;;;;2.60;1.90;;;;;;;23.02;44.11;100765.84;1773135;78;21234;-59
2021/04/15 07:25:10;;;;;;;2.58;1.82;;;;;;;23.05;44.13;100770.14;1788881;78;21237;-59
2021/04/15 07:28:16;;;;;;;3.25;2.10;;;;;;;23.09;44.12;100773.88;1746563;78;21214;-60
2021/04/15 07:31:25;;;;;;;2.85;1.90;;;;;;;23.15;44.14;100777.28;1725175;81;22123;-60
2021/04/15 07:34:14;;;;;;;2.45;2.00;;;;;;;23.20;44.10;100770.15;1785402;78;21171;-59
2021/04/15 07:37:16;;;;;;;2.60;2.40;;;;;;;23.22;44.10;100757.55;1795114;77;21878;-59
2021/04/15 07:40:17;;;;;;;2.50;1.60;;;;;;;23.26;44.08;100766.01;1764338;77;21133;-59
2021/04/15 07:43:25;;;;;;;3.10;1.80;;;;;;;23.29;44.08;100761.20;1791578;78;21197;-59
2021/04/15 07:46:06;;;;;;;2.15;1.90;;;;;;;23.35;44.05;100759.83;1794055;78;21659;-59
2021/04/15 07:48:56;;;;;;;2.87;2.00;;;;;;;23.42;44.00;100753.19;1769050;78;21134;-59
2021/04/15 07:51:52;;;;;;;3.42;2.15;;;;;;;23.45;43.95;100762.83;1804372;77;21242;-60
2021/04/15 07:54:45;;;;;;;2.60;2.10;;;;;;;23.47;43.91;100761.32;1787930;78;21710;-60
2021/04/15 07:57:47;;;;;;;2.92;2.33;;;;;;;23.49;43.89;100754.05;1791076;78;21169;-60
2021/04/15 08:03:57;;;;;;;2.72;1.92;;;;;;;23.59;43.78;100755.05;1699215;82;21248;-60
2021/04/15 08:07:03;;;;;;;3.75;1.90;;;;;;;23.63;43.74;100758.20;1721870;80;21235;-60
2021/04/15 08:10:02;;;;;;;2.45;1.75;;;;;;;23.66;43.68;100754.73;1692479;80;21207;-59
2021/04/15 08:13:01;;;;;;;2.65;1.77;;;;;;;23.69;43.64;100761.56;1721691;80;21225;-61
2021/04/15 08:16:02;;;;;;;2.98;2.02;;;;;;;23.73;43.61;100766.67;1687382;81;21282;-60
2021/04/15 08:18:49;;;;;;;2.42;1.85;;;;;;;23.79;43.57;100772.84;1698938;82;21226;-60
2021/04/15 08:21:57;;;;;;;3.58;2.10;;;;;;;23.84;43.48;100772.64;1720032;80;21245;-60
2021/04/15 08:24:34;;;;;;;2.22;1.80;;;;;;;23.84;43.42;100765.13;1713567;80;21679;-60
2021/04/15 08:27:47;;;;;;;3.12;1.85;;;;;;;23.85;43.41;100765.34;1723602;80;21226;-59
2021/04/15 08:31:02;;;;;;;2.87;1.98;;;;;;;23.87;43.35;100765.83;1716570;80;21383;-59
2021/04/15 08:34:09;;;;;;;2.15;1.80;;;;;;;23.94;43.32;100766.64;1717697;80;21232;-60
2021/04/15 08:36:47;;;;;;;2.72;1.82;;;;;;;23.97;43.23;100772.94;1719658;80;21224;-60
2021/04/15 08:39:33;;;;;;;2.65;1.90;;;;;;;23.98;43.16;100767.59;1705635;80;21249;-60
2021/04/15 08:42:43;;;;;;;2.20;1.77;;;;;;;24.00;43.16;100761.12;1723990;81;21171;-61
2021/04/15 08:45:35;;;;;;;2.15;1.90;;;;;;;24.04;43.11;100760.10;1726724;81;21572;-59
2021/04/15 08:48:36;;;;;;;2.72;2.12;;;;;;;24.08;43.09;100763.83;1727464;80;21213;-60
2021/04/15 08:51:50;;;;;;;2.62;1.90;;;;;;;24.12;43.03;100758.38;1726100;81;21200;-59
2021/04/15 08:54:46;;;;;;;2.75;1.70;;;;;;;24.14;43.01;100758.27;1720230;80;21488;-60
2021/04/15 08:57:24;;;;;;;3.02;1.60;;;;;;;24.16;42.94;100753.80;1736490;80;21271;-60
2021/04/15 09:00:35;;;;;;;2.52;1.80;;;;;;;24.19;42.90;100753.09;1727166;81;21939;-59
2021/04/15 09:03:40;;;;;;;;;;;;;;;24.24;42.87;100752.07;1628261;87;21269;-60
2021/04/15 09:06:24;;;;;;;2.45;1.77;;;;;;;24.28;42.80;100753.83;1717047;82;20237;-60
2021/04/15 09:09:19;;;;;;;2.08;1.60;;;;;;;24.28;42.77;100759.38;1714531;82;21223;-60
2021/04/15 09:12:18;;;;;;;2.02;1.55;;;;;;;24.30;42.71;100755.70;1709471;81;21224;-59
2021/04/15 09:15:08;;;;;;;2.37;1.90;;;;;;;24.32;42.69;100745.60;1682348;83;21214;-60
2021/04/15 09:17:52;;;;;;;3.50;1.70;;;;;;;24.36;42.66;100746.53;1685574;83;21618;-60
2021/04/15 09:20:43;;;;;;;2.15;1.60;;;;;;;24.41;42.57;100749.10;1712459;81;21216;-60
2021/04/15 09:23:38;;;;;;;2.33;1.80;;;;;;;24.45;42.52;100761.97;1713505;81;21801;-60
2021/04/15 09:26:29;;;;;;;2.12;1.40;;;;;;;24.46;42.46;100765.00;1715646;81;21191;-60
2021/04/15 09:29:32;;;;;;;2.45;1.60;;;;;;;24.48;42.42;100759.92;1709963;81;21270;-59
2021/04/15 09:32:04;;;;;;;2.25;1.67;;;;;;;24.51;42.41;100757.01;1718520;81;21258;-59
2021/04/15 09:34:54;;;;;;;2.05;1.70;;;;;;;24.55;42.37;100763.50;1708684;81;21259;-59
2021/04/15 09:37:51;;;;;;;1.98;1.50;;;;;;;24.57;42.29;100763.38;1675385;83;21890;-59
2021/04/15 09:41:00;;;;;;;1.82;1.60;;;;;;;24.56;42.26;100752.05;1661558;82;21711;-59
2021/04/15 09:43:48;;;;;;;1.62;1.40;;;;;;;24.58;42.25;100759.45;1723735;81;21232;-59
2021/04/15 09:46:42;;;;;;;2.35;1.40;;;;;;;24.62;42.21;100751.22;1712025;81;21946;-58
2021/04/15 09:49:31;;;;;;;1.90;1.50;;;;;;;24.66;42.15;100752.72;1715167;81;21500;-58
2021/04/15 09:52:20;;;;;;;1.77;1.20;;;;;;;24.66;42.10;100747.16;1695291;81;21271;-59
2021/04/15 09:55:22;;;;;;;1.45;1.30;;;;;;;24.66;42.05;100749.37;1715344;81;21184;-59
2021/04/15 09:58:21;;;;;;;1.65;1.45;;;;;;;24.68;42.04;100751.81;1715003;81;21215;-58
2021/04/15 10:00:50;;;;;;;1.52;1.30;;;;;;;24.70;42.00;100744.73;1705649;82;21832;-58
2021/04/15 10:03:55;;;;;;;1.55;1.45;;;;;;;24.75;41.96;100740.91;1703813;83;21196;-59
2021/04/15 10:06:31;;;;;;;1.95;1.30;;;;;;;24.77;41.89;100740.81;1710549;81;21288;-59
2021/04/15 10:09:24;;;;;;;1.82;1.50;;;;;;;24.78;41.86;100747.98;1713484;81;21596;-58
2021/04/15 10:12:14;;;;;;;1.80;1.32;;;;;;;24.80;41.78;100747.06;1705374;81;21399;-59
2021/04/15 10:15:19;;;;;;;1.43;1.27;;;;;;;24.84;41.75;100753.56;1711174;81;21161;-59
2021/04/15 10:18:14;;;;;;;1.30;0.90;;;;;;;24.90;41.66;100749.43;1714145;81;21831;-59
2021/04/15 10:21:12;;;;;;;1.10;1.00;;;;;;;24.95;41.55;100737.25;1716555;81;21187;-60
2021/04/15 10:24:18;;;;;;;1.20;1.10;;;;;;;24.98;41.46;100739.33;1701504;81;21583;-60
2021/04/15 10:27:18;;;;;;;1.25;0.93;;;;;;;25.01;41.36;100733.05;1677108;82;21216;-60
2021/04/15 10:30:06;;;;;;;1.30;1.05;;;;;;;25.05;41.27;100728.41;1718507;81;21890;-57
2021/04/15 10:33:12;;;;;;;1.42;1.20;;;;;;;25.05;41.15;100721.45;1714837;81;21158;-59
2021/04/15 10:36:20;;;;;;;1.12;1.02;;;;;;;25.12;41.05;100732.02;1684311;83;21536;-59
2021/04/15 10:39:24;;;;;;;1.50;1.00;;;;;;;25.14;40.94;100725.50;1686920;83;21173;-59
2021/04/15 10:42:29;;;;;;;1.30;1.02;;;;;;;25.16;40.84;100718.44;1677626;83;21180;-60
2021/04/15 10:45:37;;;;;;;1.60;0.90;;;;;;;25.21;40.73;100734.88;1674389;83;21943;-59
2021/04/15 10:48:41;;;;;;;1.57;1.15;;;;;;;25.26;40.59;100718.52;1709779;82;21234;-59
2021/04/15 10:51:15;;;;;;;2.75;1.02;;;;;;;25.27;40.46;100723.74;1703604;82;21249;-60
2021/04/15 10:53:56;;;;;;;2.52;1.02;;;;;;;25.30;40.29;100718.04;1721374;81;21161;-60
2021/04/15 10:56:30;;;;;;;1.20;1.10;;;;;;;25.34;40.15;100723.95;1694752;83;22081;-60
2021/04/15 10:59:16;;;;;;;1.32;1.10;;;;;;;25.39;40.03;100716.75;1704825;81;21184;-59
2021/04/15 11:01:45;;;;;;;1.10;1.00;;;;;;;25.46;39.90;100716.95;1705491;81;21143;-60
2021/04/15 11:04:18;;;;;;;0.90;0.80;;;;;;;25.47;39.73;100717.19;1691379;82;21208;-59
2021/04/15 11:06:52;;;;;;;1.25;1.00;;;;;;;25.48;39.64;100710.45;1711409;81;21140;-59
2021/04/15 11:09:33;;;;;;;1.07;0.95;;;;;;;25.48;39.56;100716.61;1700798;82;23550;-59
2021/04/15 11:12:07;;;;;;;0.90;0.82;;;;;;;25.50;39.46;100707.33;1707214;82;21244;-59
2021/04/15 11:14:38;;;;;;;1.10;1.00;;;;;;;25.57;39.35;100708.14;1695131;82;21628;-59
2021/04/15 11:17:15;;;;;;;1.10;1.00;;;;;;;25.64;39.26;100712.52;1705635;82;21176;-59
2021/04/15 11:19:42;;;;;;;1.12;1.00;;;;;;;25.66;39.15;100708.80;1695052;82;21236;-59
2021/04/15 11:22:23;;;;;;;1.52;0.80;;;;;;;25.65;39.06;100715.53;1698181;82;21236;-59
2021/04/15 11:24:49;;;;;;;1.32;0.90;;;;;;;25.64;38.97;100713.33;1704072;82;21280;-60
2021/04/15 11:27:21;;;;;;;1.67;0.90;;;;;;;25.68;38.90;100722.59;1719549;81;21534;-60
2021/04/15 11:29:49;;;;;;;1.12;0.93;;;;;;;25.71;38.83;100712.73;1704935;81;21236;-60
2021/04/15 11:32:37;;;;;;;1.17;0.98;;;;;;;25.75;38.73;100704.70;1721271;81;21105;-60
2021/04/15 11:35:15;;;;;;;1.42;0.98;;;;;;;25.80;38.65;100703.64;1725023;81;22521;-60
2021/04/15 11:37:43;;;;;;;1.30;1.02;;;;;;;25.78;38.58;100699.81;1715237;81;21616;-60
2021/04/15 11:40:34;;;;;;;0.68;0.68;;;;;;;25.79;38.46;100707.02;1727719;81;21199;-60
2021/04/15 11:43:03;;;;;;;1.82;0.90;;;;;;;25.81;38.41;100704.66;1715706;82;21199;-60
2021/04/15 11:45:33;;;;;;;1.00;0.90;;;;;;;25.86;38.33;100698.84;1707321;82;21628;-60
2021/04/15 11:48:25;;;;;;;1.13;0.90;;;;;;;25.93;38.27;100699.61;1666281;83;21207;-60
2021/04/15 11:51:14;;;;;;;0.90;0.78;;;;;;;25.96;38.20;100697.52;1695713;82;21229;-60
2021/04/15 11:53:55;;;;;;;1.12;0.90;;;;;;;25.96;38.15;100692.52;1713745;81;21200;-60
2021/04/15 11:56:28;;;;;;;1.42;0.78;;;;;;;25.96;38.18;100686.95;1709304;81;21144;-60
2021/04/15 11:58:57;;;;;;;1.02;0.93;;;;;;;25.98;38.14;100689.59;1681349;83;21271;-60
2021/04/15 12:01:27;;;;;;;1.10;0.90;;;;;;;26.02;38.12;100682.72;1689619;82;22128;-60
2021/04/15 12:03:59;;;;;;;1.27;0.88;;;;;;;26.06;38.10;100691.41;1719812;81;21489;-59
2021/04/15 12:06:36;;;;;;;0.90;0.70;;;;;;;26.08;38.06;100683.51;1717510;81;21243;-60
2021/04/15 12:09:04;;;;;;;1.07;0.80;;;;;;;26.10;38.06;100683.94;1705218;82;21226;-60
2021/04/15 12:11:35;;;;;;;1.07;0.80;;;;;;;26.10;38.05;100682.55;1680869;81;21588;-60
2021/04/15 12:14:09;;;;;;;1.10;0.95;;;;;;;26.12;38.03;100681.63;1704907;82;21639;-60
2021/04/15 12:17:05;;;;;;;0.90;0.80;;;;;;;26.15;38.02;100679.50;1702281;82;21179;-60
2021/04/15 12:20:01;;;;;;;1.22;0.90;;;;;;;26.15;38.00;100676.72;1706777;82;21181;-60
2021/04/15 12:22:46;;;;;;;0.90;0.80;;;;;;;26.16;38.02;100675.55;1708132;82;21182;-60
2021/04/15 12:25:24;;;;;;;1.50;0.60;;;;;;;26.15;38.00;100678.69;1702625;82;21252;-60
2021/04/15 12:28:12;;;;;;;1.17;0.70;;;;;;;26.14;38.03;100672.91;1699602;82;21204;-60
2021/04/15 12:30:39;;;;;;;1.10;1.00;;;;;;;26.15;38.00;100679.50;1701406;82;21743;-60
2021/04/15 12:33:25;;;;;;;1.00;0.80;;;;;;;26.14;38.01;100672.91;1707290;82;21252;-60
2021/04/15 12:35:59;;;;;;;1.05;0.93;;;;;;;26.12;38.00;100664.08;1817316;77;21228;-60
2021/04/15 12:38:40;;;;;;;0.98;0.70;;;;;;;26.10;38.07;100661.64;1827713;77;21219;-60
2021/04/15 12:41:10;;;;;;;1.25;0.82;;;;;;;26.11;38.07;100661.88;1809382;77;21188;-60